Time;durP1;ratioP1;P1;durP2;ratioP2;P2;SDS_P1;SDS_P2;PMS_P1;PMS_P2;Temp;Humidity;BMP_temperature;BMP_pressure;BME280_temperature;BME280_humidity;BME280_pressure;Samples;Min_cycle;Max_cycle;Signal;HPM_P1;HPM_P2
2024/01/03 00:01:37;;;;;;;8.80;7.00;;;;;;;6.74;37.02;98905.70;106698;1254;62379;-65
2024/01/03 00:04:07;;;;;;;;;;;;;;;6.75;37.09;98913.83;106129;1253;60458;-64
2024/01/03 00:06:35;;;;;;;11.60;7.00;;;;;;;6.69;36.85;98909.01;104522;1271;73709;-63
2024/01/03 00:09:03;;;;;;;;;;;;;;;6.53;37.02;98899.00;106054;1254;68653;-63
2024/01/03 00:11:31;;;;;;;11.50;6.90;;;;;;;6.27;37.23;98903.45;104647;1254;72569;-63
2024/01/03 00:13:59;;;;;;;;;;;;;;;6.16;37.60;98897.75;104260;1257;61811;-64
2024/01/03 00:16:26;;;;;;;10.20;6.90;;;;;;;6.13;37.48;98900.13;104452;1254;60512;-63
2024/01/03 00:18:54;;;;;;;;;;;;;;;6.50;37.26;98902.08;108340;1253;73562;-64
2024/01/03 00:21:25;;;;;;;10.50;6.90;;;;;;;6.67;36.97;98897.94;107927;1254;70022;-64
2024/01/03 00:24:09;;;;;;;7.40;6.40;;;;;;;6.69;36.73;98894.39;108110;1254;74191;-64
2024/01/03 00:26:40;;;;;;;10.10;7.00;;;;;;;6.61;37.23;98888.08;108172;1254;62338;-64
2024/01/03 00:29:22;;;;;;;8.80;6.20;;;;;;;6.61;37.24;98889.27;108130;1254;59664;-64
2024/01/03 00:31:51;;;;;;;8.70;6.10;;;;;;;6.80;37.10;98895.16;108302;1254;73698;-64
2024/01/03 00:34:22;;;;;;;11.00;7.00;;;;;;;6.83;37.12;98895.91;108337;1252;69329;-64
2024/01/03 00:36:52;;;;;;;7.40;6.20;;;;;;;6.80;37.16;98889.43;108340;1253;71346;-65
2024/01/03 00:39:25;;;;;;;9.70;6.60;;;;;;;6.73;37.40;98890.39;108244;1254;61430;-64
2024/01/03 00:41:53;;;;;;;10.20;6.40;;;;;;;6.88;37.15;98883.02;108055;1254;59702;-64
2024/01/03 00:44:21;;;;;;;9.60;6.70;;;;;;;6.76;37.41;98882.59;108345;1252;73695;-64
2024/01/03 00:46:50;;;;;;;12.80;6.50;;;;;;;6.91;37.31;98887.92;108307;1254;68198;-63
2024/01/03 00:49:18;;;;;;;8.70;6.30;;;;;;;6.50;38.04;98894.75;107979;1253;72957;-65
2024/01/03 00:51:48;;;;;;;10.10;6.60;;;;;;;6.27;38.34;98902.39;107955;1253;61565;-64
2024/01/03 00:54:16;;;;;;;8.60;6.40;;;;;;;5.96;38.76;98901.23;108172;1254;58695;-64
2024/01/03 00:56:44;;;;;;;8.30;6.80;;;;;;;5.64;39.39;98903.36;108169;1252;73753;-65
2024/01/03 00:59:13;;;;;;;9.10;6.80;;;;;;;5.90;39.25;98894.16;107804;1253;69167;-65
2024/01/03 01:01:41;;;;;;;10.90;7.00;;;;;;;5.79;39.66;98883.92;108054;1254;72940;-65
2024/01/03 01:04:08;;;;;;;8.80;6.80;;;;;;;5.69;39.96;98876.98;108273;1253;60680;-64
2024/01/03 01:06:36;;;;;;;;;;;;;;;5.73;39.99;98871.27;108279;1253;59703;-72
2024/01/03 01:09:05;;;;;;;10.40;7.60;;;;;;;6.45;38.81;98868.12;108017;1254;74056;-66
2024/01/03 01:11:32;;;;;;;9.50;6.30;;;;;;;6.75;38.18;98853.20;108083;1254;69016;-63
2024/01/03 01:14:02;;;;;;;;;;;;;;;6.74;38.15;98863.86;108309;1252;73364;-62
2024/01/03 01:16:30;;;;;;;8.70;6.00;;;;;;;7.08;37.77;98865.11;108408;1253;62238;-63
2024/01/03 01:18:58;;;;;;;;;;;;;;;7.13;37.63;98862.31;108418;1253;59819;-63
2024/01/03 01:21:26;;;;;;;9.20;7.10;;;;;;;7.27;37.47;98856.85;108068;1253;73693;-62
2024/01/03 01:23:53;;;;;;;8.50;6.80;;;;;;;7.26;37.36;98864.90;108231;1253;69832;-63
2024/01/03 01:26:22;;;;;;;8.40;6.50;;;;;;;7.30;37.14;98856.38;108149;1254;72948;-63
2024/01/03 01:28:50;;;;;;;9.20;6.70;;;;;;;7.27;37.29;98865.89;108181;1254;60663;-63
2024/01/03 01:31:17;;;;;;;9.10;7.40;;;;;;;7.30;37.33;98862.48;108317;1254;59722;-62
2024/01/03 01:33:45;;;;;;;8.70;6.20;;;;;;;7.15;37.77;98859.60;108309;1253;74999;-62
2024/01/03 01:36:14;;;;;;;;;;;;;;;6.45;38.58;98846.02;108239;1253;69034;-62
2024/01/03 01:38:43;;;;;;;8.70;6.10;;;;;;;6.98;38.32;98858.05;108149;1254;72440;-62
2024/01/03 01:41:11;;;;;;;9.90;6.70;;;;;;;7.20;37.82;98855.23;108117;1253;60655;-62
2024/01/03 01:43:39;;;;;;;9.40;7.20;;;;;;;7.33;37.68;98852.94;108141;1252;60047;-62
2024/01/03 01:46:07;;;;;;;14.00;8.30;;;;;;;7.13;37.81;98848.73;108134;1253;73706;-62
2024/01/03 01:48:35;;;;;;;8.70;7.20;;;;;;;7.01;37.86;98843.80;108314;1253;69270;-62
2024/01/03 01:51:04;;;;;;;10.30;7.70;;;;;;;7.03;38.07;98839.55;108209;1253;72387;-63
2024/01/03 01:53:32;;;;;;;8.60;7.70;;;;;;;7.32;37.78;98846.34;108232;1254;60668;-62
2024/01/03 01:55:59;;;;;;;9.90;7.80;;;;;;;7.47;37.55;98849.22;108365;1252;59848;-62
2024/01/03 01:58:27;;;;;;;11.70;7.60;;;;;;;7.27;37.55;98857.90;108376;1253;73034;-62
2024/01/03 02:00:55;;;;;;;11.80;8.10;;;;;;;7.20;37.49;98856.07;107914;1257;68234;-62
2024/01/03 02:03:22;;;;;;;9.70;7.80;;;;;;;7.22;37.56;98856.70;108081;1253;72489;-62
2024/01/03 02:05:50;;;;;;;10.20;7.80;;;;;;;7.18;37.56;98845.70;108245;1252;60566;-62
2024/01/03 02:08:18;;;;;;;9.80;7.90;;;;;;;7.11;37.78;98843.41;108372;1253;59546;-62
2024/01/03 02:10:45;;;;;;;8.90;7.60;;;;;;;7.23;38.03;98844.48;108148;1253;73582;-62
2024/01/03 02:13:13;;;;;;;13.40;8.70;;;;;;;7.23;37.54;98854.22;108364;1252;69766;-63
2024/01/03 02:15:41;;;;;;;;;;;;;;;7.26;37.76;98844.85;108160;1252;72952;-62
2024/01/03 02:18:09;;;;;;;9.70;7.50;;;;;;;7.45;37.35;98836.92;108244;1253;59834;-62
2024/01/03 02:20:37;;;;;;;10.70;8.30;;;;;;;7.30;37.40;98826.89;108340;1253;59566;-63
2024/01/03 02:23:05;;;;;;;;;;;;;;;7.27;37.57;98833.83;108076;1253;74100;-63
2024/01/03 02:25:33;;;;;;;13.80;9.00;;;;;;;7.35;37.49;98832.30;108303;1253;69348;-63
2024/01/03 02:28:00;;;;;;;;;;;;;;;7.30;37.51;98817.48;108182;1253;73463;-63
2024/01/03 02:30:28;;;;;;;15.50;9.30;;;;;;;7.22;37.58;98821.16;108331;1253;60953;-63
2024/01/03 02:32:55;;;;;;;;;;;;;;;7.35;37.46;98823.20;108340;1253;59767;-62
2024/01/03 02:35:23;;;;;;;9.60;7.70;;;;;;;7.58;37.11;98826.76;108163;1253;74136;-64
2024/01/03 02:39:58;;;;;;;9.80;8.10;;;;;;;6.50;39.94;98833.04;101327;1296;602952;-64
2024/01/03 02:43:10;;;;;;;10.70;8.00;;;;;;;7.69;37.02;98823.85;103501;1269;59375;-62
2024/01/03 02:45:44;;;;;;;12.50;8.10;;;;;;;7.57;36.98;98831.66;103517;1280;60609;-62
2024/01/03 02:48:24;;;;;;;9.90;8.30;;;;;;;7.64;36.78;98827.05;103590;1271;71986;-62
2024/01/03 02:51:36;;;;;;;11.00;8.90;;;;;;;7.60;36.69;98840.98;103577;1271;68201;-62
2024/01/03 02:54:47;;;;;;;8.80;7.80;;;;;;;7.12;37.28;98831.66;103857;1262;72993;-62
2024/01/03 02:57:18;;;;;;;9.40;7.60;;;;;;;6.38;38.63;98836.88;106111;1257;61402;-63
2024/01/03 02:59:49;;;;;;;9.80;7.90;;;;;;;6.67;38.35;98826.86;107081;1257;59825;-66
2024/01/03 05:52:24;;;;;;;12.20;9.70;;;;;;;7.08;37.50;98785.67;102163;1291;601168;-62
2024/01/03 05:55:38;;;;;;;11.50;9.60;;;;;;;7.16;37.22;98781.85;103982;1265;59816;-61
2024/01/03 05:58:09;;;;;;;14.90;10.10;;;;;;;6.91;37.33;98778.52;104002;1264;59290;-63
2024/01/03 06:00:40;;;;;;;12.40;9.60;;;;;;;6.79;37.39;98777.98;107568;1259;73008;-64
2024/01/03 06:03:11;;;;;;;14.70;10.50;;;;;;;6.69;37.61;98781.16;107558;1259;67971;-64
2024/01/03 06:05:39;;;;;;;11.90;10.00;;;;;;;6.60;37.78;98778.05;105496;1263;208744;-63
2024/01/03 06:08:10;;;;;;;;;;;;;;;6.69;37.82;98777.34;104918;1256;60766;-63
2024/01/03 06:10:42;;;;;;;12.40;9.30;;;;;;;6.62;37.83;98776.94;104910;1259;59650;-68
2024/01/03 06:13:15;;;;;;;13.30;10.20;;;;;;;6.71;37.94;98777.80;107726;1255;72473;-71
2024/01/03 06:19:57;;;;;;;12.90;9.90;;;;;;;6.84;37.85;98773.06;107736;1256;72433;-71
2024/01/03 06:25:55;;;;;;;12.60;9.40;;;;;;;6.84;37.78;98760.70;107680;1256;60177;-65
2024/01/03 06:28:26;;;;;;;13.60;10.30;;;;;;;6.81;37.91;98760.65;107774;1257;72124;-66
2024/01/03 06:30:57;;;;;;;12.10;9.60;;;;;;;6.92;37.69;98765.08;107765;1256;69107;-65
2024/01/03 06:33:27;;;;;;;12.80;10.20;;;;;;;6.86;37.95;98757.28;107696;1256;73144;-66
2024/01/03 06:36:00;;;;;;;13.80;10.40;;;;;;;7.22;37.88;98754.07;107703;1256;61670;-65
2024/01/03 06:38:31;;;;;;;14.90;11.00;;;;;;;7.12;37.91;98746.63;107655;1256;59657;-66
2024/01/03 06:41:42;;;;;;;15.20;11.60;;;;;;;6.98;38.27;98737.81;107825;1256;72495;-66
2024/01/03 06:44:53;;;;;;;15.20;10.40;;;;;;;6.91;38.55;98735.66;107938;1256;68307;-66
2024/01/03 06:48:07;;;;;;;13.10;10.80;;;;;;;7.10;38.59;98736.78;107708;1256;72947;-66
2024/01/03 06:50:41;;;;;;;14.40;10.90;;;;;;;6.93;38.55;98732.27;107642;1256;59059;-66
2024/01/03 07:00:44;;;;;;;14.30;11.00;;;;;;;7.06;39.33;98718.65;107592;1256;69022;-66
2024/01/03 07:03:15;;;;;;;17.80;11.90;;;;;;;7.11;39.15;98715.12;107690;1256;72211;-66
2024/01/03 07:05:46;;;;;;;15.60;11.70;;;;;;;6.98;39.46;98709.94;107682;1257;58969;-66
2024/01/03 07:08:17;;;;;;;17.70;12.00;;;;;;;6.95;39.36;98707.10;107764;1257;60130;-65
2024/01/03 07:10:48;;;;;;;15.90;11.30;;;;;;;6.97;39.09;98702.14;107616;1256;73651;-64
2024/01/03 07:13:18;;;;;;;14.20;11.40;;;;;;;6.95;39.23;98693.19;107731;1256;68234;-69
2024/01/03 07:16:29;;;;;;;17.70;10.80;;;;;;;6.89;39.26;98683.51;107778;1256;72546;-62
2024/01/03 07:24:41;;;;;;;14.20;10.90;;;;;;;7.05;39.55;98686.98;107941;1256;59968;-61
2024/01/03 07:31:16;;;;;;;19.70;10.80;;;;;;;7.00;39.77;98681.60;107726;1256;69192;-61
2024/01/03 07:34:28;;;;;;;17.30;10.80;;;;;;;6.92;39.69;98671.66;107926;1256;72624;-62
2024/01/03 07:41:36;;;;;;;13.80;10.90;;;;;;;7.15;39.82;98658.48;107721;1256;58846;-63
2024/01/03 07:44:47;;;;;;;13.80;10.70;;;;;;;7.07;40.03;98661.98;107801;1256;73734;-62
2024/01/03 07:47:59;;;;;;;13.80;10.30;;;;;;;7.25;39.83;98662.02;107667;1256;70446;-62
2024/01/03 07:50:31;;;;;;;12.60;10.60;;;;;;;7.82;39.16;98657.67;107746;1256;72199;-63
2024/01/03 07:53:05;;;;;;;12.80;9.90;;;;;;;7.59;39.17;98658.95;107570;1256;58951;-63
2024/01/03 07:55:36;;;;;;;13.40;10.80;;;;;;;7.25;39.72;98661.36;107728;1256;59678;-62
2024/01/03 07:58:53;;;;;;;13.30;10.50;;;;;;;7.38;39.87;98658.86;107736;1257;72255;-63
2024/01/03 08:05:45;;;;;;;13.40;9.10;;;;;;;7.35;40.05;98642.77;107902;1256;72457;-61
2024/01/03 08:08:56;;;;;;;12.20;10.00;;;;;;;7.35;40.02;98644.35;108417;1251;59067;-61
2024/01/03 08:12:09;;;;;;;14.60;11.20;;;;;;;7.41;40.08;98638.15;108374;1253;59089;-61
2024/01/03 08:15:23;;;;;;;13.90;10.50;;;;;;;7.46;39.87;98631.14;108437;1251;72893;-61
2024/01/03 08:18:38;;;;;;;12.70;10.00;;;;;;;7.46;39.91;98625.19;108416;1253;70014;-61
2024/01/03 08:21:50;;;;;;;11.90;10.60;;;;;;;7.41;40.38;98619.86;108350;1253;72791;-61
2024/01/03 08:25:02;;;;;;;14.70;10.80;;;;;;;7.46;40.27;98619.80;108459;1252;59392;-61
2024/01/03 08:28:13;;;;;;;12.70;10.40;;;;;;;7.49;40.17;98612.86;108390;1253;60338;-61
2024/01/03 08:31:25;;;;;;;12.30;10.00;;;;;;;7.45;40.28;98605.17;108370;1253;72870;-62
2024/01/03 08:34:38;;;;;;;13.40;10.70;;;;;;;7.53;40.36;98605.86;108438;1253;69910;-61
2024/01/03 08:37:53;;;;;;;14.00;10.60;;;;;;;7.54;40.31;98600.93;108432;1251;72439;-62
2024/01/03 08:41:04;;;;;;;14.90;10.80;;;;;;;7.51;40.50;98595.66;108419;1253;60661;-62
2024/01/03 08:44:17;;;;;;;14.70;11.10;;;;;;;7.53;40.59;98588.40;108297;1253;59674;-62
2024/01/03 08:47:28;;;;;;;14.50;11.10;;;;;;;7.81;40.43;98578.18;108377;1252;72872;-62
2024/01/03 08:49:56;;;;;;;15.00;10.90;;;;;;;7.78;40.51;98571.36;108509;1252;69194;-62
2024/01/03 08:52:24;;;;;;;;;;;;;;;7.75;40.48;98568.02;108402;1253;71333;-62
2024/01/03 08:59:04;;;;;;;14.30;10.50;;;;;;;7.80;40.36;98565.50;108395;1251;60101;-62
2024/01/03 09:01:34;;;;;;;12.90;10.50;;;;;;;7.95;40.21;98560.77;108376;1252;73066;-62
2024/01/03 09:04:05;;;;;;;13.60;10.70;;;;;;;7.79;40.54;98560.31;108357;1253;69490;-62
2024/01/03 09:06:38;;;;;;;14.30;11.80;;;;;;;7.79;40.73;98557.88;108318;1256;72806;-62
2024/01/03 09:09:17;;;;;;;13.70;10.70;;;;;;;7.95;40.57;98551.66;108338;1253;60997;-62
2024/01/03 09:11:49;;;;;;;14.70;11.60;;;;;;;7.89;40.50;98545.17;108490;1251;59748;-62
2024/01/03 09:14:20;;;;;;;15.70;11.20;;;;;;;7.89;40.54;98543.08;108329;1253;73299;-62
2024/01/03 09:16:51;;;;;;;16.00;12.40;;;;;;;7.82;40.56;98538.73;108341;1251;69218;-61
2024/01/03 09:19:22;;;;;;;16.20;11.70;;;;;;;7.86;40.53;98530.52;108274;1253;72556;-62
2024/01/03 09:21:55;;;;;;;14.40;11.50;;;;;;;7.80;40.79;98527.47;108294;1251;59635;-61
2024/01/03 09:24:27;;;;;;;13.70;11.40;;;;;;;7.88;41.03;98524.46;108407;1252;59283;-62
2024/01/03 09:26:59;;;;;;;15.10;12.40;;;;;;;7.93;41.09;98521.59;108312;1253;73137;-62
2024/01/03 09:33:54;;;;;;;15.10;12.10;;;;;;;7.88;41.41;98510.69;108332;1252;72908;-62
2024/01/03 09:37:06;;;;;;;13.30;11.10;;;;;;;7.82;41.35;98505.41;108397;1254;60580;-62
2024/01/03 09:40:20;;;;;;;13.80;11.80;;;;;;;7.92;41.50;98494.40;108407;1253;59703;-62
2024/01/03 09:43:31;;;;;;;14.50;11.50;;;;;;;8.04;41.37;98488.96;108405;1253;73895;-61
2024/01/03 09:50:31;;;;;;;14.20;11.90;;;;;;;8.18;41.66;98472.69;108455;1252;71373;-62
2024/01/03 09:53:20;;;;;;;12.80;11.40;;;;;;;8.53;41.13;98466.85;108313;1252;60670;-60
2024/01/03 09:55:51;;;;;;;13.50;11.50;;;;;;;8.58;40.73;98462.63;108068;1254;59686;-63
2024/01/03 09:58:55;;;;;;;16.10;11.90;;;;;;;8.51;41.04;98456.17;108337;1252;73251;-63
2024/01/03 10:01:29;;;;;;;15.40;12.10;;;;;;;8.72;40.63;98451.01;108212;1252;69831;-63
2024/01/03 10:04:00;;;;;;;14.90;12.10;;;;;;;8.72;40.66;98443.30;108294;1254;72492;-61
2024/01/03 10:06:31;;;;;;;14.00;12.40;;;;;;;8.66;40.67;98437.91;108297;1251;60647;-61
2024/01/03 10:09:02;;;;;;;15.60;12.20;;;;;;;8.22;41.44;98431.45;108319;1251;59767;-62
2024/01/03 10:11:34;;;;;;;16.70;12.10;;;;;;;8.15;41.57;98426.38;108280;1254;72910;-62
2024/01/03 10:14:18;;;;;;;16.70;13.20;;;;;;;8.18;41.47;98416.66;108190;1251;68401;-62
2024/01/03 10:20:45;;;;;;;17.70;12.60;;;;;;;8.32;41.47;98391.30;108399;1251;59734;-61
2024/01/03 10:24:03;;;;;;;16.20;12.40;;;;;;;8.20;41.69;98385.13;108357;1254;59650;-62
2024/01/03 10:27:18;;;;;;;14.70;12.30;;;;;;;8.24;41.71;98378.63;108405;1253;72106;-62
2024/01/03 10:30:29;;;;;;;16.00;12.60;;;;;;;8.25;41.69;98373.18;108374;1251;69166;-62
2024/01/03 10:33:40;;;;;;;14.70;12.30;;;;;;;8.23;41.71;98363.52;108413;1251;74588;-62
2024/01/03 10:37:12;;;;;;;14.90;12.30;;;;;;;8.30;41.68;98349.70;108373;1254;62288;-62
2024/01/03 10:40:23;;;;;;;17.40;12.90;;;;;;;8.33;41.74;98345.13;108368;1256;59797;-63
2024/01/03 10:43:34;;;;;;;14.90;12.30;;;;;;;8.43;41.73;98347.79;108400;1253;75579;-65
2024/01/03 10:46:46;;;;;;;15.60;12.50;;;;;;;8.28;42.00;98344.73;108370;1251;69228;-63
2024/01/03 10:49:57;;;;;;;18.30;11.80;;;;;;;8.36;42.19;98343.23;108317;1254;72550;-61
